Time;durP1;ratioP1;P1;durP2;ratioP2;P2;SDS_P1;SDS_P2;PMS_P1;PMS_P2;Temp;Humidity;BMP_temperature;BMP_pressure;BME280_temperature;BME280_humidity;BME280_pressure;Samples;Min_cycle;Max_cycle;Signal;HPM_P1;HPM_P2
2022/03/24 00:01:02;;;;;;;;;;;;;;;6.02;43.81;97528.03;5074739;28;19952;-71
2022/03/24 00:03:28;;;;;;;;;;;;;;;5.97;43.39;97519.91;5074191;28;19972;-71
2022/03/24 00:05:54;;;;;;;;;;;;;;;5.94;43.63;97530.59;5074544;28;20472;-70
2022/03/24 00:08:20;;;;;;;;;;;;;;;5.89;43.77;97520.69;5074815;28;19985;-70
2022/03/24 00:10:46;;;;;;;;;;;;;;;5.84;43.10;97521.19;5074472;28;19961;-70
2022/03/24 00:13:12;;;;;;;;;;;;;;;5.84;44.03;97515.16;5073271;28;19972;-70
2022/03/24 00:15:38;;;;;;;;;;;;;;;5.79;44.07;97523.44;5074634;28;20002;-70
2022/03/24 00:18:03;;;;;;;;;;;;;;;5.76;44.52;97523.75;5074280;28;19950;-70
2022/03/24 00:20:29;;;;;;;;;;;;;;;5.72;44.03;97516.44;5073449;28;20324;-70
2022/03/24 00:22:55;;;;;;;;;;;;;;;5.68;44.27;97523.75;5074350;28;19952;-70
2022/03/24 00:25:21;;;;;;;;;;;;;;;5.64;43.97;97520.63;5074590;28;19953;-70
2022/03/24 00:27:47;;;;;;;;;;;;;;;5.61;44.44;97520.16;5074225;28;20398;-70
2022/03/24 00:30:13;;;;;;;;;;;;;;;5.55;44.46;97518.19;5074559;28;19953;-70
2022/03/24 00:32:39;;;;;;;;;;;;;;;5.49;44.48;97523.06;5073905;28;19948;-71
2022/03/24 00:35:05;;;;;;;;;;;;;;;5.45;44.74;97518.34;5074119;28;19950;-70
2022/03/24 00:37:31;;;;;;;;;;;;;;;5.40;44.56;97518.00;5074177;28;20310;-70
2022/03/24 00:40:00;;;;;;;;;;;;;;;5.37;44.80;97511.31;5074007;28;19948;-71
2022/03/24 00:42:26;;;;;;;;;;;;;;;5.34;44.54;97513.44;5074036;28;20435;-71
2022/03/24 00:44:52;;;;;;;;;;;;;;;5.30;45.16;97510.31;5073976;28;19946;-73
2022/03/24 00:47:18;;;;;;;;;;;;;;;5.26;45.01;97509.00;5074027;28;19998;-71
2022/03/24 00:49:43;;;;;;;;;;;;;;;5.23;45.06;97507.53;5073905;28;20038;-71
2022/03/24 00:52:10;;;;;;;;;;;;;;;5.22;45.02;97502.50;5073947;28;19972;-71
2022/03/24 00:54:37;;;;;;;;;;;;;;;5.19;45.19;97501.03;5073693;28;19962;-71
2022/03/24 00:57:03;;;;;;;;;;;;;;;5.16;45.30;97501.31;5072567;28;20339;-70
2022/03/24 00:59:29;;;;;;;;;;;;;;;5.13;45.31;97499.06;5073746;28;19956;-70
2022/03/24 01:01:56;;;;;;;;;;;;;;;5.08;45.23;97506.50;5073352;28;20384;-71
2022/03/24 01:04:22;;;;;;;;;;;;;;;5.03;44.86;97506.97;5073797;28;19946;-70
2022/03/24 01:06:48;;;;;;;;;;;;;;;5.01;45.27;97506.31;5073762;28;19938;-70
2022/03/24 01:09:14;;;;;;;;;;;;;;;5.02;45.66;97504.56;5073675;28;19953;-70
2022/03/24 01:11:40;;;;;;;;;;;;;;;5.00;46.12;97507.28;5073678;28;19952;-70
2022/03/24 01:14:07;;;;;;;;;;;;;;;4.98;46.29;97500.63;5073699;28;19959;-70
2022/03/24 01:16:34;;;;;;;;;;;;;;;4.91;46.03;97499.59;5073412;28;19959;-71
2022/03/24 01:19:00;;;;;;;;;;;;;;;4.83;46.17;97490.81;5073523;28;19944;-70
2022/03/24 01:21:26;;;;;;;;;;;;;;;4.80;46.34;97498.09;5074019;28;19951;-70
2022/03/24 01:23:53;;;;;;;;;;;;;;;4.74;46.50;97498.72;5073642;28;20042;-72
2022/03/24 01:26:18;;;;;;;;;;;;;;;4.70;46.09;97492.19;5060704;28;19947;-71
2022/03/24 01:28:45;;;;;;;;;;;;;;;4.64;46.09;97491.88;5073206;28;19945;-72
2022/03/24 01:31:10;;;;;;;;;;;;;;;4.61;46.13;97486.97;5073694;28;19946;-70
2022/03/24 01:33:37;;;;;;;;;;;;;;;4.63;48.20;97484.22;5077294;28;20024;-71
2022/03/24 01:36:05;;;;;;;;;;;;;;;4.62;46.91;97485.16;5077532;28;19949;-70
2022/03/24 01:38:30;;;;;;;;;;;;;;;4.58;46.88;97481.28;5077398;28;19938;-70
2022/03/24 01:40:58;;;;;;;;;;;;;;;4.52;46.88;97477.50;5077549;28;20026;-71
2022/03/24 01:43:25;;;;;;;;;;;;;;;4.48;46.75;97481.38;5077300;28;19946;-70
2022/03/24 01:45:51;;;;;;;;;;;;;;;4.42;46.56;97472.41;5077194;28;19953;-72
2022/03/24 01:48:16;;;;;;;;;;;;;;;4.38;47.01;97471.09;5078095;28;19981;-71
2022/03/24 01:50:43;;;;;;;;;;;;;;;4.36;46.73;97474.81;5077278;28;19951;-71
2022/03/24 01:53:09;;;;;;;;;;;;;;;4.32;47.28;97481.28;5077330;28;19986;-71
2022/03/24 01:55:35;;;;;;;;;;;;;;;4.28;47.14;97475.56;5076985;28;19951;-71
2022/03/24 01:58:02;;;;;;;;;;;;;;;4.24;47.38;97482.84;5076996;28;19984;-71
2022/03/24 02:00:28;;;;;;;;;;;;;;;4.21;47.35;97475.34;5077636;28;20310;-70
2022/03/24 02:02:54;;;;;;;;;;;;;;;4.16;47.83;97472.41;5076701;28;19979;-71
2022/03/24 02:05:20;;;;;;;;;;;;;;;4.12;47.72;97478.06;5077294;28;19950;-71
2022/03/24 02:07:46;;;;;;;;;;;;;;;4.06;47.46;97472.50;5076956;28;19945;-71
2022/03/24 02:10:11;;;;;;;;;;;;;;;4.03;47.60;97472.81;5076855;28;19990;-72
2022/03/24 02:12:37;;;;;;;;;;;;;;;3.98;47.74;97472.44;5076888;28;19980;-72
2022/03/24 02:15:04;;;;;;;;;;;;;;;3.97;48.03;97473.41;5076763;28;20389;-72
2022/03/24 02:17:30;;;;;;;;;;;;;;;3.93;48.48;97474.69;5076805;28;20308;-72
2022/03/24 02:20:00;;;;;;;;;;;;;;;3.90;48.24;97467.19;5076735;28;19951;-72
2022/03/24 02:22:29;;;;;;;;;;;;;;;3.86;47.83;97476.22;5076788;28;19949;-72
2022/03/24 02:24:55;;;;;;;;;;;;;;;3.83;48.02;97481.72;5076521;28;19943;-72
2022/03/24 02:27:23;;;;;;;;;;;;;;;3.79;48.09;97478.59;5076774;28;19948;-72
2022/03/24 02:29:50;;;;;;;;;;;;;;;3.74;49.32;97472.22;5076445;28;19953;-72
2022/03/24 02:32:17;;;;;;;;;;;;;;;3.69;48.81;97466.69;5076782;28;19945;-71
2022/03/24 02:34:50;;;;;;;;;;;;;;;3.65;48.33;97469.59;5076399;28;20328;-73
2022/03/24 02:37:19;;;;;;;;;;;;;;;3.62;48.63;97477.66;5076448;28;19942;-73
2022/03/24 02:39:47;;;;;;;;;;;;;;;3.59;48.64;97466.75;5064424;28;19939;-72
2022/03/24 02:42:14;;;;;;;;;;;;;;;3.56;48.46;97470.47;5074957;28;20299;-72
2022/03/24 02:44:45;;;;;;;;;;;;;;;3.51;49.01;97475.28;5075219;28;20325;-72
2022/03/24 02:47:12;;;;;;;;;;;;;;;3.45;49.78;97468.91;5075854;28;19940;-71
2022/03/24 02:49:39;;;;;;;;;;;;;;;3.40;49.36;97478.91;5076319;28;19950;-71
2022/03/24 02:52:05;;;;;;;;;;;;;;;3.39;54.14;97471.28;5076153;28;20414;-71
2022/03/24 02:54:31;;;;;;;;;;;;;;;3.40;50.27;97460.78;5075055;28;19957;-71
2022/03/24 02:56:58;;;;;;;;;;;;;;;3.39;50.11;97461.72;5074706;28;20427;-70
2022/03/24 02:59:24;;;;;;;;;;;;;;;3.36;49.93;97464.63;5076393;28;19957;-70
2022/03/24 03:01:51;;;;;;;;;;;;;;;3.34;49.51;97461.34;5076130;28;19967;-70
2022/03/24 03:04:17;;;;;;;;;;;;;;;3.31;49.99;97461.63;5075777;28;19979;-71
2022/03/24 03:06:43;;;;;;;;;;;;;;;3.30;50.17;97467.78;5075945;28;19992;-71
2022/03/24 03:09:09;;;;;;;;;;;;;;;3.28;50.40;97471.50;5075713;28;19947;-70
2022/03/24 03:11:35;;;;;;;;;;;;;;;3.26;49.81;97469.03;5076023;28;20392;-70
2022/03/24 03:14:01;;;;;;;;;;;;;;;3.23;49.81;97470.16;5075479;28;19974;-70
2022/03/24 03:16:27;;;;;;;;;;;;;;;3.21;50.20;97481.63;5075670;28;19948;-70
2022/03/24 03:18:55;;;;;;;;;;;;;;;3.14;50.47;97478.78;5075386;28;20031;-70
2022/03/24 03:21:21;;;;;;;;;;;;;;;3.11;49.90;97475.66;5075453;28;19940;-71
2022/03/24 03:23:47;;;;;;;;;;;;;;;3.06;50.42;97476.09;5075837;28;19954;-70
2022/03/24 03:26:16;;;;;;;;;;;;;;;3.03;50.39;97473.81;5075388;28;19979;-70
2022/03/24 03:28:42;;;;;;;;;;;;;;;3.01;50.63;97481.72;5075589;28;19942;-70
2022/03/24 03:31:08;;;;;;;;;;;;;;;2.99;50.97;97481.06;5075433;28;19945;-70
2022/03/24 03:33:34;;;;;;;;;;;;;;;3.00;50.52;97484.47;5075048;28;19964;-70
2022/03/24 03:36:00;;;;;;;;;;;;;;;2.99;50.76;97486.25;5075119;28;19959;-71
2022/03/24 03:38:26;;;;;;;;;;;;;;;2.98;51.16;97486.38;5074262;28;19950;-70
2022/03/24 03:40:53;;;;;;;;;;;;;;;2.94;51.11;97485.88;5075341;28;19947;-70
2022/03/24 03:43:19;;;;;;;;;;;;;;;2.93;50.94;97486.00;5075011;28;19952;-70
2022/03/24 03:45:45;;;;;;;;;;;;;;;2.90;50.79;97483.69;5075130;28;20327;-70
2022/03/24 03:48:11;;;;;;;;;;;;;;;2.87;50.73;97484.78;5075079;28;19943;-70
2022/03/24 03:50:38;;;;;;;;;;;;;;;2.85;50.96;97492.69;5075045;28;19944;-70
2022/03/24 03:53:04;;;;;;;;;;;;;;;2.82;51.18;97487.81;5074716;28;20318;-71
2022/03/24 03:55:30;;;;;;;;;;;;;;;2.79;51.09;97487.28;5074887;28;19947;-71
2022/03/24 03:57:56;;;;;;;;;;;;;;;2.79;50.69;97485.53;5074706;28;19997;-70
2022/03/24 04:03:06;;;;;;;;;;;;;;;2.74;51.51;97477.34;5074602;28;20400;-70
2022/03/24 04:05:33;;;;;;;;;;;;;;;2.71;51.05;97479.41;5074495;28;19951;-70
2022/03/24 04:07:59;;;;;;;;;;;;;;;2.69;50.89;97478.72;5074728;28;19952;-70
2022/03/24 04:10:27;;;;;;;;;;;;;;;2.66;51.74;97482.44;5074493;28;19948;-70
2022/03/24 04:12:55;;;;;;;;;;;;;;;2.65;51.36;97486.00;5074801;28;19952;-70
2022/03/24 04:15:21;;;;;;;;;;;;;;;2.62;51.49;97487.09;5074392;28;19961;-72
2022/03/24 04:17:47;;;;;;;;;;;;;;;2.59;51.84;97489.16;5074430;28;20328;-70
2022/03/24 04:20:20;;;;;;;;;;;;;;;2.55;51.86;97493.78;5074461;28;19962;-71
2022/03/24 04:22:48;;;;;;;;;;;;;;;2.52;51.78;97494.09;5074806;28;20305;-70
2022/03/24 04:25:14;;;;;;;;;;;;;;;2.50;51.50;97487.38;5074319;28;19955;-70
2022/03/24 04:27:40;;;;;;;;;;;;;;;2.50;52.53;97498.59;5074406;28;19946;-71
2022/03/24 04:30:07;;;;;;;;;;;;;;;2.49;52.28;97493.53;5074159;28;19998;-70
2022/03/24 04:32:33;;;;;;;;;;;;;;;2.44;52.31;97493.97;5074505;28;19954;-71
2022/03/24 04:34:59;;;;;;;;;;;;;;;2.40;52.12;97490.84;5072503;28;19972;-71
2022/03/24 04:37:25;;;;;;;;;;;;;;;2.37;52.40;97493.72;5074521;28;19941;-71
2022/03/24 04:39:51;;;;;;;;;;;;;;;2.33;52.68;97499.28;5072902;28;19958;-71
2022/03/24 04:42:17;;;;;;;;;;;;;;;2.29;52.69;97492.75;5073933;28;19943;-71
2022/03/24 04:44:43;;;;;;;;;;;;;;;2.21;52.69;97494.28;5073878;28;20357;-71
2022/03/24 04:47:09;;;;;;;;;;;;;;;2.18;53.14;97493.72;5073898;28;19940;-71
2022/03/24 04:49:34;;;;;;;;;;;;;;;2.14;52.76;97493.22;5073999;28;19983;-70
2022/03/24 04:52:03;;;;;;;;;;;;;;;2.11;52.86;97490.88;5073802;28;19952;-71
2022/03/24 04:54:29;;;;;;;;;;;;;;;2.08;53.17;97498.94;5073644;28;19954;-70
2022/03/24 04:56:57;;;;;;;;;;;;;;;2.07;53.46;97491.31;5073810;28;19952;-70
2022/03/24 04:59:22;;;;;;;;;;;;;;;2.05;53.30;97488.84;5073661;28;19951;-71
2022/03/24 05:01:49;;;;;;;;;;;;;;;2.05;53.57;97488.84;5073768;28;20041;-71
2022/03/24 05:04:17;;;;;;;;;;;;;;;2.01;53.42;97493.47;5073983;28;19976;-70
2022/03/24 05:06:43;;;;;;;;;;;;;;;1.99;53.33;97490.22;5072525;28;19949;-70
2022/03/24 05:09:09;;;;;;;;;;;;;;;1.97;53.43;97496.47;5072501;28;20027;-71
2022/03/24 05:11:35;;;;;;;;;;;;;;;1.97;53.52;97496.47;5073614;28;19950;-70
2022/03/24 05:14:01;;;;;;;;;;;;;;;1.95;54.14;97498.38;5073368;28;20014;-71
2022/03/24 05:16:28;;;;;;;;;;;;;;;1.95;53.70;97488.88;5073606;28;19945;-70
2022/03/24 05:18:54;;;;;;;;;;;;;;;1.94;53.88;97495.00;5072208;28;19950;-71
2022/03/24 05:21:20;;;;;;;;;;;;;;;1.92;54.14;97499.50;5073497;28;19948;-70
2022/03/24 05:23:46;;;;;;;;;;;;;;;1.91;54.36;97503.03;5073645;28;19953;-70
2022/03/24 05:26:12;;;;;;;;;;;;;;;1.89;54.23;97502.38;5073457;28;19943;-71
2022/03/24 05:28:39;;;;;;;;;;;;;;;1.86;54.52;97501.81;5073377;28;19959;-71
2022/03/24 05:31:05;;;;;;;;;;;;;;;1.84;53.81;97501.94;5073496;28;19947;-71
2022/03/24 05:33:31;;;;;;;;;;;;;;;1.85;54.06;97505.34;5073137;28;19947;-71
2022/03/24 05:35:57;;;;;;;;;;;;;;;1.87;53.80;97503.44;5073314;28;19949;-70
2022/03/24 05:38:23;;;;;;;;;;;;;;;1.90;53.68;97500.59;5073296;28;19946;-71
2022/03/24 05:40:49;;;;;;;;;;;;;;;1.95;53.85;97504.41;5073045;28;19949;-71
2022/03/24 05:43:15;;;;;;;;;;;;;;;1.98;54.30;97503.31;5073879;28;19946;-71
2022/03/24 05:45:41;;;;;;;;;;;;;;;1.98;54.91;97513.66;5072514;28;19947;-71
2022/03/24 05:48:07;;;;;;;;;;;;;;;1.98;54.58;97514.47;5073396;28;19951;-71
2022/03/24 05:50:33;;;;;;;;;;;;;;;2.01;54.72;97510.78;5073140;28;19941;-71
2022/03/24 05:52:58;;;;;;;;;;;;;;;2.12;53.84;97510.66;5073282;28;20000;-71
2022/03/24 05:55:24;;;;;;;;;;;;;;;2.54;53.96;97515.47;5072994;28;20064;-71
2022/03/24 05:57:50;;;;;;;;;;;;;;;3.12;52.59;97504.03;5073423;28;20397;-72
2022/03/24 06:00:16;;;;;;;;;;;;;;;3.74;51.93;97500.75;5073208;28;20350;-71
2022/03/24 06:02:43;;;;;;;;;;;;;;;4.35;50.89;97504.34;5072939;28;19971;-70
2022/03/24 06:05:12;;;;;;;;;;;;;;;4.97;49.61;97512.00;5073207;28;19960;-71
2022/03/24 06:07:38;;;;;;;;;;;;;;;5.56;48.36;97512.00;5073077;28;20339;-70
2022/03/24 06:10:05;;;;;;;;;;;;;;;6.08;47.43;97506.56;5073012;28;19953;-71
2022/03/24 06:12:31;;;;;;;;;;;;;;;6.59;46.43;97504.53;5073110;28;19946;-70
2022/03/24 06:14:57;;;;;;;;;;;;;;;7.05;45.40;97509.13;5073601;28;19961;-70
2022/03/24 06:17:23;;;;;;;;;;;;;;;7.46;44.46;97506.34;5072930;28;20409;-70
2022/03/24 06:19:50;;;;;;;;;;;;;;;7.81;44.10;97504.16;5076741;28;19953;-70
2022/03/24 06:22:16;;;;;;;;;;;;;;;8.13;43.10;97509.16;5076749;28;19946;-70
2022/03/24 06:24:42;;;;;;;;;;;;;;;8.48;42.70;97504.31;5076686;28;20306;-70
2022/03/24 06:27:08;;;;;;;;;;;;;;;8.80;41.88;97502.34;5076596;28;20032;-70
2022/03/24 06:29:34;;;;;;;;;;;;;;;9.05;41.43;97505.50;5076563;28;19938;-70
2022/03/24 06:32:01;;;;;;;;;;;;;;;9.26;40.94;97509.16;5076407;28;20324;-70
2022/03/24 06:34:27;;;;;;;;;;;;;;;9.41;40.55;97507.34;5076360;28;19955;-70
2022/03/24 06:36:54;;;;;;;;;;;;;;;9.48;40.37;97512.66;5076553;28;19953;-70
2022/03/24 06:39:20;;;;;;;;;;;;;;;9.59;39.86;97508.72;5076327;28;20404;-70
2022/03/24 06:41:46;;;;;;;;;;;;;;;9.52;39.74;97514.72;5076481;28;19959;-71
2022/03/24 06:44:12;;;;;;;;;;;;;;;9.41;39.95;97509.97;5076434;28;19950;-70
2022/03/24 06:46:38;;;;;;;;;;;;;;;9.45;40.13;97507.75;5076496;28;19951;-71
2022/03/24 06:49:05;;;;;;;;;;;;;;;9.57;39.84;97508.09;5076166;28;19953;-71
2022/03/24 06:51:31;;;;;;;;;;;;;;;9.59;39.89;97503.50;5076172;28;19944;-70
2022/03/24 06:53:57;;;;;;;;;;;;;;;9.67;40.00;97511.25;5076061;28;20408;-70
2022/03/24 06:56:23;;;;;;;;;;;;;;;9.81;39.84;97501.72;5058018;28;19945;-70
2022/03/24 06:58:50;;;;;;;;;;;;;;;9.87;39.89;97506.19;5076711;28;20348;-70
2022/03/24 07:01:16;;;;;;;;;;;;;;;10.02;39.90;97509.56;5076412;28;19953;-70
2022/03/24 07:03:41;;;;;;;;;;;;;;;10.11;39.60;97508.44;5075722;28;20433;-70
2022/03/24 07:06:07;;;;;;;;;;;;;;;10.05;39.52;97516.25;5075866;28;20051;-70
2022/03/24 07:08:34;;;;;;;;;;;;;;;9.97;39.47;97511.94;5075742;28;20446;-70
2022/03/24 07:11:00;;;;;;;;;;;;;;;9.88;39.76;97510.44;5075668;28;19955;-70
2022/03/24 07:13:26;;;;;;;;;;;;;;;9.87;39.72;97506.19;5075732;28;19972;-70
2022/03/24 07:15:52;;;;;;;;;;;;;;;10.02;39.98;97506.94;5075474;28;20421;-70
2022/03/24 07:18:18;;;;;;;;;;;;;;;10.27;39.89;97504.75;5075749;28;19989;-70
2022/03/24 07:20:44;;;;;;;;;;;;;;;10.57;39.13;97501.97;5075684;28;20324;-70
2022/03/24 07:23:10;;;;;;;;;;;;;;;10.72;38.50;97504.47;5075340;28;20011;-70
2022/03/24 07:25:36;;;;;;;;;;;;;;;10.90;38.72;97506.63;5075490;28;19953;-70
2022/03/24 07:28:04;;;;;;;;;;;;;;;10.96;38.91;97509.28;5075390;28;19949;-70
2022/03/24 07:30:30;;;;;;;;;;;;;;;11.16;38.84;97511.19;5075245;28;19953;-70
2022/03/24 07:32:58;;;;;;;;;;;;;;;11.39;38.79;97500.38;5076077;28;20324;-70
2022/03/24 07:35:26;;;;;;;;;;;;;;;11.55;38.23;97507.91;5074567;28;19962;-71
2022/03/24 07:37:53;;;;;;;;;;;;;;;11.65;37.71;97511.97;5075325;28;19953;-70
2022/03/24 07:40:21;;;;;;;;;;;;;;;11.76;39.33;97508.78;5075096;28;19946;-70
2022/03/24 07:42:47;;;;;;;;;;;;;;;11.85;37.83;97504.94;5075801;28;19945;-70
2022/03/24 07:45:13;;;;;;;;;;;;;;;11.87;37.36;97507.38;5073839;28;19954;-70
2022/03/24 07:47:57;;;;;;;;;;;;;;;12.04;37.65;97506.00;5075661;28;19943;-70
2022/03/24 07:50:24;;;;;;;;;;;;;;;12.28;37.21;97501.94;5074897;28;19964;-71
2022/03/24 07:52:49;;;;;;;;;;;;;;;12.39;37.08;97503.19;5075537;28;19956;-70
2022/03/24 07:55:16;;;;;;;;;;;;;;;12.47;36.82;97510.03;5075239;28;19970;-70
2022/03/24 07:57:41;;;;;;;;;;;;;;;12.63;36.87;97507.00;5075418;28;19984;-71
2022/03/24 08:00:08;;;;;;;;;;;;;;;12.84;36.43;97508.59;5074929;28;19960;-71
2022/03/24 08:02:41;;;;;;;;;;;;;;;13.00;36.29;97512.63;5073469;28;19973;-70
2022/03/24 08:05:07;;;;;;;;;;;;;;;13.08;36.30;97507.13;5073309;28;19948;-71
2022/03/24 08:07:33;;;;;;;;;;;;;;;12.80;35.78;97510.81;5074742;28;19958;-70
2022/03/24 08:09:59;;;;;;;;;;;;;;;12.44;36.87;97508.63;5073448;28;20019;-71
2022/03/24 08:12:25;;;;;;;;;;;;;;;12.46;37.35;97521.59;5074770;28;20007;-70
2022/03/24 08:14:50;;;;;;;;;;;;;;;12.75;37.03;97512.47;5073951;28;20025;-70
2022/03/24 08:17:16;;;;;;;;;;;;;;;13.03;36.39;97519.28;5074571;28;20010;-70
2022/03/24 08:19:42;;;;;;;;;;;;;;;13.15;34.77;97512.38;5074409;28;19942;-71
2022/03/24 08:22:08;;;;;;;;;;;;;;;13.28;36.28;97517.56;5074309;28;20375;-71
2022/03/24 08:24:34;;;;;;;;;;;;;;;13.35;35.51;97510.47;5074357;28;20378;-70
2022/03/24 08:27:00;;;;;;;;;;;;;;;13.63;35.85;97508.53;5073278;28;19977;-71
2022/03/24 08:29:26;;;;;;;;;;;;;;;13.89;35.64;97507.56;5074110;28;19961;-71
2022/03/24 08:31:52;;;;;;;;;;;;;;;13.94;35.28;97508.56;5074332;28;19949;-71
2022/03/24 08:34:18;;;;;;;;;;;;;;;14.24;34.92;97509.75;5074220;28;19954;-70
2022/03/24 08:36:43;;;;;;;;;;;;;;;14.49;33.48;97507.13;5073825;28;19965;-70
2022/03/24 08:39:09;;;;;;;;;;;;;;;14.65;33.30;97503.97;5074535;28;19956;-70
2022/03/24 08:41:35;;;;;;;;;;;;;;;14.57;34.04;97501.59;5073320;28;20520;-70
2022/03/24 08:44:01;;;;;;;;;;;;;;;14.66;33.43;97510.88;5074069;28;19953;-71
2022/03/24 08:46:27;;;;;;;;;;;;;;;14.72;33.17;97504.72;5074082;28;19956;-70
2022/03/24 08:48:53;;;;;;;;;;;;;;;14.66;32.63;97502.13;5073817;28;19943;-71
2022/03/24 08:51:19;;;;;;;;;;;;;;;14.55;32.83;97504.47;5074053;28;19951;-70
2022/03/24 08:53:45;;;;;;;;;;;;;;;14.68;33.17;97503.53;5073662;28;19943;-70
2022/03/24 08:56:13;;;;;;;;;;;;;;;14.85;33.02;97493.22;5073709;28;20334;-70
2022/03/24 08:58:39;;;;;;;;;;;;;;;14.81;33.43;97499.97;5074039;28;19939;-70
2022/03/24 09:01:05;;;;;;;;;;;;;;;14.92;33.39;97503.69;5073835;28;19949;-70
2022/03/24 09:03:31;;;;;;;;;;;;;;;15.07;31.87;97496.22;5073907;28;19974;-71
2022/03/24 09:05:57;;;;;;;;;;;;;;;15.02;33.09;97501.38;5074131;28;20305;-70
2022/03/24 09:08:23;;;;;;;;;;;;;;;15.04;32.45;97501.16;5073663;28;19948;-70
2022/03/24 09:10:50;;;;;;;;;;;;;;;15.13;33.49;97503.25;5073626;28;20381;-70
2022/03/24 09:13:16;;;;;;;;;;;;;;;15.23;33.37;97500.09;5072295;28;19992;-71
2022/03/24 09:15:44;;;;;;;;;;;;;;;15.46;38.56;97507.34;5072209;28;19964;-71
2022/03/24 09:18:10;;;;;;;;;;;;;;;15.76;33.50;97496.00;5074194;28;19951;-71
2022/03/24 09:20:36;;;;;;;;;;;;;;;15.85;33.19;97497.28;5073523;28;19955;-71
2022/03/24 09:23:02;;;;;;;;;;;;;;;15.89;33.02;97500.28;5073502;28;20396;-71
2022/03/24 09:25:28;;;;;;;;;;;;;;;15.90;32.86;97493.97;5073793;28;19955;-71
2022/03/24 09:27:54;;;;;;;;;;;;;;;16.06;32.42;97503.09;5073426;28;19942;-71
2022/03/24 09:30:20;;;;;;;;;;;;;;;16.21;32.65;97495.53;5073446;28;20335;-71
2022/03/24 09:32:47;;;;;;;;;;;;;;;16.22;32.83;97497.16;5073609;28;19958;-71
2022/03/24 09:35:13;;;;;;;;;;;;;;;16.10;32.36;97502.41;5073441;28;19965;-71
2022/03/24 09:37:39;;;;;;;;;;;;;;;16.14;31.22;97492.97;5073342;28;20396;-71
2022/03/24 09:40:06;;;;;;;;;;;;;;;16.09;31.79;97505.31;5073610;28;19954;-71
2022/03/24 09:42:33;;;;;;;;;;;;;;;15.98;32.75;97505.03;5073296;28;19940;-71
2022/03/24 09:45:03;;;;;;;;;;;;;;;15.90;32.81;97500.06;5073268;28;19940;-71
2022/03/24 09:47:29;;;;;;;;;;;;;;;15.95;31.89;97496.75;5073178;28;19947;-71
2022/03/24 09:49:56;;;;;;;;;;;;;;;15.81;32.75;97496.94;5073345;28;19952;-71
2022/03/24 09:52:22;;;;;;;;;;;;;;;15.85;32.56;97492.00;5073240;28;19944;-71
2022/03/24 09:54:48;;;;;;;;;;;;;;;16.02;32.91;97486.84;5076865;28;19970;-71
2022/03/24 09:57:15;;;;;;;;;;;;;;;16.26;29.20;97477.13;5077131;28;20388;-71
2022/03/24 09:59:42;;;;;;;;;;;;;;;16.54;32.04;97484.38;5077712;28;19943;-71
2022/03/24 10:02:08;;;;;;;;;;;;;;;16.78;31.01;97479.09;5076978;28;20291;-71
2022/03/24 10:04:43;;;;;;;;;;;;;;;16.93;30.04;97482.09;5077398;28;19952;-71
2022/03/24 10:07:09;;;;;;;;;;;;;;;17.11;27.81;97473.19;5069075;28;19955;-71
2022/03/24 10:09:41;;;;;;;;;;;;;;;17.25;29.02;97474.53;5076975;28;19971;-71
2022/03/24 10:12:08;;;;;;;;;;;;;;;17.42;27.55;97474.59;5067714;28;19944;-71
2022/03/24 10:14:34;;;;;;;;;;;;;;;17.36;29.18;97480.84;5077668;28;19938;-71
2022/03/24 10:17:07;;;;;;;;;;;;;;;17.35;30.62;97481.88;5076973;28;19951;-71
2022/03/24 10:19:34;;;;;;;;;;;;;;;17.39;27.61;97471.63;5077103;28;20397;-71
2022/03/24 10:22:07;;;;;;;;;;;;;;;17.50;28.76;97470.75;5076693;28;20941;-71
2022/03/24 10:24:38;;;;;;;;;;;;;;;17.68;25.70;97461.00;5076757;28;19944;-71
2022/03/24 10:27:04;;;;;;;;;;;;;;;17.81;25.66;97466.81;5076978;28;19945;-71
2022/03/24 10:29:31;;;;;;;;;;;;;;;18.01;26.55;97462.91;5076578;28;19962;-71
2022/03/24 10:32:10;;;;;;;;;;;;;;;18.17;26.55;97463.97;5076260;28;19945;-71
2022/03/24 10:34:46;;;;;;;;;;;;;;;18.26;25.34;97462.53;5076574;28;20316;-71
2022/03/24 10:37:13;;;;;;;;;;;;;;;18.39;27.18;97453.41;5076537;28;19950;-71
2022/03/24 10:39:55;;;;;;;;;;;;;;;18.52;25.36;97454.94;5076438;28;19948;-71
2022/03/24 10:42:23;;;;;;;;;;;;;;;18.68;25.48;97451.44;5076511;28;19951;-71
2022/03/24 10:45:07;;;;;;;;;;;;;;;18.81;24.42;97452.97;5076185;28;19956;-71
2022/03/24 10:47:40;;;;;;;;;;;;;;;18.93;27.00;97453.66;5076274;28;19940;-70
2022/03/24 10:50:25;;;;;;;;;;;;;;;19.12;23.55;97450.69;5076390;28;19943;-70
2022/03/24 10:52:53;;;;;;;;;;;;;;;19.16;23.89;97443.84;5076450;28;19951;-71
2022/03/24 10:55:26;;;;;;;;;;;;;;;19.33;25.33;97443.75;5076105;28;19970;-71
2022/03/24 10:57:53;;;;;;;;;;;;;;;19.48;26.05;97443.91;5075925;28;19968;-70
2022/03/24 11:00:19;;;;;;;;;;;;;;;19.67;25.38;97439.03;5076050;28;19949;-70
2022/03/24 11:02:45;;;;;;;;;;;;;;;19.83;24.74;97432.03;5074308;28;20423;-70
2022/03/24 11:05:14;;;;;;;;;;;;;;;19.84;25.31;97429.13;5075031;28;19958;-69
2022/03/24 11:07:50;;;;;;;;;;;;;;;19.90;25.27;97434.50;5075491;28;20417;-70
2022/03/24 11:10:16;;;;;;;;;;;;;;;19.99;24.25;97433.78;5075736;28;19946;-70
2022/03/24 11:12:43;;;;;;;;;;;;;;;20.16;24.40;97427.50;5075794;28;19942;-70
2022/03/24 11:15:09;;;;;;;;;;;;;;;20.38;24.83;97425.53;5075629;28;19954;-70
2022/03/24 11:17:37;;;;;;;;;;;;;;;20.46;24.51;97427.72;5075834;28;19949;-70
2022/03/24 11:20:15;;;;;;;;;;;;;;;20.55;22.59;97429.88;5075692;28;19954;-71
2022/03/24 11:22:51;;;;;;;;;;;;;;;20.59;21.80;97426.47;5075782;28;19942;-71
2022/03/24 11:25:18;;;;;;;;;;;;;;;20.62;22.70;97431.31;5075437;28;20401;-70
2022/03/24 11:27:44;;;;;;;;;;;;;;;20.65;23.45;97429.97;5075926;28;19951;-71
2022/03/24 11:30:11;;;;;;;;;;;;;;;20.59;23.63;97423.81;5075349;28;19955;-71
2022/03/24 11:32:39;;;;;;;;;;;;;;;20.71;23.55;97423.63;5075609;28;19954;-71
2022/03/24 11:35:06;;;;;;;;;;;;;;;20.98;22.98;97414.69;5075168;28;19962;-71
2022/03/24 11:37:32;;;;;;;;;;;;;;;21.14;24.06;97413.66;5075705;28;19942;-71
2022/03/24 11:40:08;;;;;;;;;;;;;;;21.18;23.08;97401.41;5075696;28;19949;-70
2022/03/24 11:42:36;;;;;;;;;;;;;;;21.13;22.16;97400.59;5075111;28;19943;-70
2022/03/24 11:45:13;;;;;;;;;;;;;;;21.24;24.85;97402.22;5075197;28;19969;-70
2022/03/24 11:47:58;;;;;;;;;;;;;;;21.40;23.49;97401.19;5075205;28;20327;-71
2022/03/24 11:50:33;;;;;;;;;;;;;;;21.41;22.26;97399.31;5064874;28;19948;-71
2022/03/24 11:53:10;;;;;;;;;;;;;;;21.42;23.13;97400.97;5074944;28;20319;-71
2022/03/24 11:55:37;;;;;;;;;;;;;;;21.26;20.48;97394.75;5074939;28;19959;-71
2022/03/24 11:58:03;;;;;;;;;;;;;;;21.01;19.96;97393.59;5074768;28;19951;-71
2022/03/24 12:00:30;;;;;;;;;;;;;;;20.88;19.74;97386.91;5074934;28;19942;-71
2022/03/24 12:03:00;;;;;;;;;;;;;;;20.82;19.71;97385.28;5074614;28;20435;-70
2022/03/24 12:05:45;;;;;;;;;;;;;;;20.79;21.52;97390.31;5074562;28;19953;-71
2022/03/24 12:08:11;;;;;;;;;;;;;;;21.04;21.74;97384.28;5067521;28;20314;-71
2022/03/24 12:10:37;;;;;;;;;;;;;;;21.20;21.16;97375.25;5074715;28;19954;-71
2022/03/24 12:13:22;;;;;;;;;;;;;;;21.36;21.51;97376.09;5074863;28;20015;-71
2022/03/24 12:16:06;;;;;;;;;;;;;;;21.49;21.02;97380.16;5064700;28;19965;-71
2022/03/24 12:18:39;;;;;;;;;;;;;;;21.48;20.87;97368.69;5074694;28;19940;-71
2022/03/24 12:21:05;;;;;;;;;;;;;;;21.45;20.92;97368.41;5074184;28;19945;-71
2022/03/24 12:24:03;;;;;;;;;;;;;;;21.44;20.62;97366.78;5074766;28;20393;-71
2022/03/24 12:26:30;;;;;;;;;;;;;;;21.42;21.30;97355.59;5061907;28;19945;-71
2022/03/24 12:29:11;;;;;;;;;;;;;;;21.32;20.36;97359.00;5074384;28;19942;-71
2022/03/24 12:31:56;;;;;;;;;;;;;;;21.33;20.21;97354.47;5063854;28;19950;-71
2022/03/24 12:34:22;;;;;;;;;;;;;;;21.47;20.42;97350.25;5065216;28;20393;-72
2022/03/24 12:36:48;;;;;;;;;;;;;;;21.49;20.68;97358.81;5074124;28;19975;-70
2022/03/24 12:39:40;;;;;;;;;;;;;;;21.52;20.52;97360.91;5074118;28;20382;-70
2022/03/24 12:42:13;;;;;;;;;;;;;;;21.49;20.16;97351.59;5072716;28;20422;-70
2022/03/24 12:44:55;;;;;;;;;;;;;;;21.36;19.37;97345.97;5074316;28;19937;-70
2022/03/24 12:47:39;;;;;;;;;;;;;;;21.37;21.80;97342.22;5073855;28;19938;-70
2022/03/24 12:50:09;;;;;;;;;;;;;;;21.27;20.16;97337.66;5073887;28;20407;-71
2022/03/24 12:52:51;;;;;;;;;;;;;;;21.36;21.27;97335.28;5074178;28;20313;-72
2022/03/24 12:55:21;;;;;;;;;;;;;;;21.39;19.41;97332.84;5073677;28;19964;-72
2022/03/24 12:57:57;;;;;;;;;;;;;;;21.34;19.99;97335.53;5073781;28;20434;-71